sensor_id;sensor_type;location;lat;lon;timestamp;P1;durP1;ratioP1;P2;durP2;ratioP2
65009;SDS011;51556;50.002;22.014;2022-12-20T00:01:46;12.00;;;5.20;;
65009;SDS011;51556;50.002;22.014;2022-12-20T00:04:12;12.70;;;5.90;;
65009;SDS011;51556;50.002;22.014;2022-12-20T00:06:37;10.60;;;4.60;;
65009;SDS011;51556;50.002;22.014;2022-12-20T00:09:04;9.30;;;4.80;;
65009;SDS011;51556;50.002;22.014;2022-12-20T00:11:31;11.30;;;5.30;;
65009;SDS011;51556;50.002;22.014;2022-12-20T00:13:57;11.80;;;5.80;;
65009;SDS011;51556;50.002;22.014;2022-12-20T00:16:24;11.90;;;4.70;;
65009;SDS011;51556;50.002;22.014;2022-12-20T00:18:58;11.10;;;5.50;;
65009;SDS011;51556;50.002;22.014;2022-12-20T00:21:25;12.20;;;4.50;;
65009;SDS011;51556;50.002;22.014;2022-12-20T00:23:52;13.00;;;5.60;;
65009;SDS011;51556;50.002;22.014;2022-12-20T00:26:19;10.60;;;5.10;;
65009;SDS011;51556;50.002;22.014;2022-12-20T00:28:50;10.50;;;4.70;;
65009;SDS011;51556;50.002;22.014;2022-12-20T00:31:16;10.00;;;5.10;;
65009;SDS011;51556;50.002;22.014;2022-12-20T00:33:44;14.00;;;5.60;;
65009;SDS011;51556;50.002;22.014;2022-12-20T00:36:11;10.50;;;5.10;;
65009;SDS011;51556;50.002;22.014;2022-12-20T00:38:37;10.00;;;5.10;;
65009;SDS011;51556;50.002;22.014;2022-12-20T00:43:31;10.60;;;5.50;;
65009;SDS011;51556;50.002;22.014;2022-12-20T00:45:57;11.20;;;6.00;;
65009;SDS011;51556;50.002;22.014;2022-12-20T00:48:23;15.20;;;7.20;;
65009;SDS011;51556;50.002;22.014;2022-12-20T00:50:49;8.30;;;4.80;;
65009;SDS011;51556;50.002;22.014;2022-12-20T00:53:15;13.10;;;6.00;;
65009;SDS011;51556;50.002;22.014;2022-12-20T00:55:43;13.20;;;6.60;;
65009;SDS011;51556;50.002;22.014;2022-12-20T00:58:10;11.50;;;5.80;;
65009;SDS011;51556;50.002;22.014;2022-12-20T01:00:36;10.20;;;5.10;;
65009;SDS011;51556;50.002;22.014;2022-12-20T01:03:02;12.20;;;5.90;;
65009;SDS011;51556;50.002;22.014;2022-12-20T01:05:27;10.50;;;5.30;;
65009;SDS011;51556;50.002;22.014;2022-12-20T01:07:53;11.30;;;5.60;;
65009;SDS011;51556;50.002;22.014;2022-12-20T01:10:18;11.50;;;6.10;;
65009;SDS011;51556;50.002;22.014;2022-12-20T01:12:44;10.50;;;5.30;;
65009;SDS011;51556;50.002;22.014;2022-12-20T01:15:10;12.70;;;5.90;;
65009;SDS011;51556;50.002;22.014;2022-12-20T01:17:35;11.80;;;6.10;;
65009;SDS011;51556;50.002;22.014;2022-12-20T01:20:01;13.90;;;6.60;;
65009;SDS011;51556;50.002;22.014;2022-12-20T01:22:28;10.50;;;5.10;;
65009;SDS011;51556;50.002;22.014;2022-12-20T01:24:53;14.50;;;5.50;;
65009;SDS011;51556;50.002;22.014;2022-12-20T01:27:18;7.80;;;4.00;;
65009;SDS011;51556;50.002;22.014;2022-12-20T01:29:44;11.30;;;5.10;;
65009;SDS011;51556;50.002;22.014;2022-12-20T01:32:09;9.30;;;4.30;;
65009;SDS011;51556;50.002;22.014;2022-12-20T01:34:35;12.60;;;6.10;;
65009;SDS011;51556;50.002;22.014;2022-12-20T01:37:00;11.10;;;5.50;;
65009;SDS011;51556;50.002;22.014;2022-12-20T01:39:25;12.00;;;5.40;;
65009;SDS011;51556;50.002;22.014;2022-12-20T01:41:51;11.10;;;5.40;;
65009;SDS011;51556;50.002;22.014;2022-12-20T01:46:42;11.70;;;5.60;;
65009;SDS011;51556;50.002;22.014;2022-12-20T01:51:39;10.00;;;4.80;;
65009;SDS011;51556;50.002;22.014;2022-12-20T01:54:18;10.00;;;6.10;;
65009;SDS011;51556;50.002;22.014;2022-12-20T01:56:49;12.40;;;5.10;;
65009;SDS011;51556;50.002;22.014;2022-12-20T01:59:20;11.40;;;5.40;;
65009;SDS011;51556;50.002;22.014;2022-12-20T02:01:45;14.20;;;6.60;;
65009;SDS011;51556;50.002;22.014;2022-12-20T02:04:11;12.00;;;5.80;;
65009;SDS011;51556;50.002;22.014;2022-12-20T02:06:37;8.70;;;4.60;;
65009;SDS011;51556;50.002;22.014;2022-12-20T02:09:02;8.90;;;4.10;;
65009;SDS011;51556;50.002;22.014;2022-12-20T02:14:31;12.10;;;6.50;;
65009;SDS011;51556;50.002;22.014;2022-12-20T02:30:59;9.60;;;5.40;;
65009;SDS011;51556;50.002;22.014;2022-12-20T02:35:54;8.50;;;4.10;;
65009;SDS011;51556;50.002;22.014;2022-12-20T02:38:27;10.70;;;5.20;;
65009;SDS011;51556;50.002;22.014;2022-12-20T02:41:02;12.70;;;5.60;;
65009;SDS011;51556;50.002;22.014;2022-12-20T02:43:31;11.90;;;5.80;;
65009;SDS011;51556;50.002;22.014;2022-12-20T02:46:23;9.50;;;5.50;;
65009;SDS011;51556;50.002;22.014;2022-12-20T02:48:50;11.70;;;5.60;;
65009;SDS011;51556;50.002;22.014;2022-12-20T02:51:17;11.40;;;5.20;;
65009;SDS011;51556;50.002;22.014;2022-12-20T02:53:47;11.50;;;5.60;;
65009;SDS011;51556;50.002;22.014;2022-12-20T03:01:29;10.40;;;5.50;;
65009;SDS011;51556;50.002;22.014;2022-12-20T03:03:56;9.60;;;4.60;;
65009;SDS011;51556;50.002;22.014;2022-12-20T03:06:23;11.60;;;5.70;;
65009;SDS011;51556;50.002;22.014;2022-12-20T03:08:48;11.60;;;5.10;;
65009;SDS011;51556;50.002;22.014;2022-12-20T03:11:14;9.70;;;5.00;;
65009;SDS011;51556;50.002;22.014;2022-12-20T03:13:39;12.00;;;5.40;;
65009;SDS011;51556;50.002;22.014;2022-12-20T03:16:05;10.40;;;5.00;;
65009;SDS011;51556;50.002;22.014;2022-12-20T03:18:31;9.00;;;5.40;;
65009;SDS011;51556;50.002;22.014;2022-12-20T03:20:57;11.80;;;6.30;;
65009;SDS011;51556;50.002;22.014;2022-12-20T03:23:22;11.80;;;4.90;;
65009;SDS011;51556;50.002;22.014;2022-12-20T03:25:48;10.30;;;4.90;;
65009;SDS011;51556;50.002;22.014;2022-12-20T03:28:13;9.80;;;5.60;;
65009;SDS011;51556;50.002;22.014;2022-12-20T03:30:39;11.20;;;5.20;;
65009;SDS011;51556;50.002;22.014;2022-12-20T03:33:04;11.00;;;4.90;;
65009;SDS011;51556;50.002;22.014;2022-12-20T03:35:30;10.50;;;5.80;;
65009;SDS011;51556;50.002;22.014;2022-12-20T03:37:55;11.90;;;5.70;;
65009;SDS011;51556;50.002;22.014;2022-12-20T03:40:21;9.70;;;5.00;;
65009;SDS011;51556;50.002;22.014;2022-12-20T03:42:46;14.90;;;6.40;;
65009;SDS011;51556;50.002;22.014;2022-12-20T03:45:12;11.30;;;5.90;;
65009;SDS011;51556;50.002;22.014;2022-12-20T03:47:37;11.50;;;5.60;;
65009;SDS011;51556;50.002;22.014;2022-12-20T03:50:03;13.60;;;6.60;;
65009;SDS011;51556;50.002;22.014;2022-12-20T03:52:30;13.20;;;6.70;;
65009;SDS011;51556;50.002;22.014;2022-12-20T03:54:56;10.80;;;5.40;;
65009;SDS011;51556;50.002;22.014;2022-12-20T03:57:21;11.30;;;4.80;;
65009;SDS011;51556;50.002;22.014;2022-12-20T03:59:47;11.40;;;5.20;;
65009;SDS011;51556;50.002;22.014;2022-12-20T04:02:12;12.00;;;5.60;;
65009;SDS011;51556;50.002;22.014;2022-12-20T04:04:37;10.00;;;4.80;;
65009;SDS011;51556;50.002;22.014;2022-12-20T04:07:03;13.20;;;6.80;;
65009;SDS011;51556;50.002;22.014;2022-12-20T04:09:28;13.90;;;6.20;;
65009;SDS011;51556;50.002;22.014;2022-12-20T04:11:54;12.70;;;6.30;;
65009;SDS011;51556;50.002;22.014;2022-12-20T04:14:19;12.60;;;6.30;;
65009;SDS011;51556;50.002;22.014;2022-12-20T04:16:45;12.80;;;6.30;;
65009;SDS011;51556;50.002;22.014;2022-12-20T04:19:10;13.80;;;6.10;;
65009;SDS011;51556;50.002;22.014;2022-12-20T04:21:36;13.20;;;5.80;;
65009;SDS011;51556;50.002;22.014;2022-12-20T04:24:02;11.50;;;5.90;;
65009;SDS011;51556;50.002;22.014;2022-12-20T04:26:28;12.80;;;6.40;;
65009;SDS011;51556;50.002;22.014;2022-12-20T04:28:53;12.30;;;6.20;;
65009;SDS011;51556;50.002;22.014;2022-12-20T04:31:19;13.40;;;6.50;;
65009;SDS011;51556;50.002;22.014;2022-12-20T04:33:45;12.30;;;6.00;;
65009;SDS011;51556;50.002;22.014;2022-12-20T04:36:11;14.50;;;6.60;;
65009;SDS011;51556;50.002;22.014;2022-12-20T04:38:37;16.50;;;6.40;;
65009;SDS011;51556;50.002;22.014;2022-12-20T04:41:02;11.20;;;5.40;;
65009;SDS011;51556;50.002;22.014;2022-12-20T04:43:28;14.30;;;6.80;;
65009;SDS011;51556;50.002;22.014;2022-12-20T04:45:54;13.40;;;6.10;;
65009;SDS011;51556;50.002;22.014;2022-12-20T04:48:21;12.30;;;5.50;;
65009;SDS011;51556;50.002;22.014;2022-12-20T04:50:54;13.50;;;6.60;;
65009;SDS011;51556;50.002;22.014;2022-12-20T04:53:20;12.20;;;6.50;;
65009;SDS011;51556;50.002;22.014;2022-12-20T04:56:05;16.00;;;7.10;;
65009;SDS011;51556;50.002;22.014;2022-12-20T04:58:31;13.70;;;6.10;;
65009;SDS011;51556;50.002;22.014;2022-12-20T05:00:57;13.40;;;5.90;;
65009;SDS011;51556;50.002;22.014;2022-12-20T05:03:23;14.00;;;6.50;;
65009;SDS011;51556;50.002;22.014;2022-12-20T05:05:49;13.80;;;6.30;;
65009;SDS011;51556;50.002;22.014;2022-12-20T05:08:15;13.00;;;5.90;;
65009;SDS011;51556;50.002;22.014;2022-12-20T05:10:40;13.00;;;6.20;;
65009;SDS011;51556;50.002;22.014;2022-12-20T05:13:06;15.40;;;6.40;;
65009;SDS011;51556;50.002;22.014;2022-12-20T05:15:32;12.60;;;6.40;;
65009;SDS011;51556;50.002;22.014;2022-12-20T05:17:58;12.60;;;6.50;;
65009;SDS011;51556;50.002;22.014;2022-12-20T05:20:30;11.70;;;5.70;;
65009;SDS011;51556;50.002;22.014;2022-12-20T05:22:56;12.00;;;6.40;;
65009;SDS011;51556;50.002;22.014;2022-12-20T05:25:45;13.80;;;6.30;;
65009;SDS011;51556;50.002;22.014;2022-12-20T05:28:30;11.90;;;6.40;;
65009;SDS011;51556;50.002;22.014;2022-12-20T05:30:56;12.60;;;5.70;;
65009;SDS011;51556;50.002;22.014;2022-12-20T05:33:22;13.00;;;6.40;;
65009;SDS011;51556;50.002;22.014;2022-12-20T05:35:47;12.30;;;6.10;;
65009;SDS011;51556;50.002;22.014;2022-12-20T05:38:12;13.10;;;6.30;;
65009;SDS011;51556;50.002;22.014;2022-12-20T05:40:38;12.10;;;6.20;;
65009;SDS011;51556;50.002;22.014;2022-12-20T05:43:04;15.30;;;7.70;;
65009;SDS011;51556;50.002;22.014;2022-12-20T05:45:30;11.30;;;5.90;;
65009;SDS011;51556;50.002;22.014;2022-12-20T05:47:56;10.00;;;5.90;;
65009;SDS011;51556;50.002;22.014;2022-12-20T05:50:21;13.50;;;5.40;;
65009;SDS011;51556;50.002;22.014;2022-12-20T05:52:47;15.60;;;7.30;;
65009;SDS011;51556;50.002;22.014;2022-12-20T05:55:12;12.00;;;6.30;;
65009;SDS011;51556;50.002;22.014;2022-12-20T05:57:38;13.40;;;5.80;;
65009;SDS011;51556;50.002;22.014;2022-12-20T06:00:03;10.90;;;5.30;;
65009;SDS011;51556;50.002;22.014;2022-12-20T06:02:29;16.20;;;7.30;;
65009;SDS011;51556;50.002;22.014;2022-12-20T06:04:54;12.50;;;6.30;;
65009;SDS011;51556;50.002;22.014;2022-12-20T06:07:21;12.10;;;6.00;;
65009;SDS011;51556;50.002;22.014;2022-12-20T06:09:47;14.20;;;5.70;;
65009;SDS011;51556;50.002;22.014;2022-12-20T06:12:12;12.50;;;6.50;;
65009;SDS011;51556;50.002;22.014;2022-12-20T06:14:38;12.00;;;5.80;;
65009;SDS011;51556;50.002;22.014;2022-12-20T06:17:03;10.40;;;5.60;;
65009;SDS011;51556;50.002;22.014;2022-12-20T06:19:29;14.70;;;6.80;;
65009;SDS011;51556;50.002;22.014;2022-12-20T06:21:54;11.50;;;5.50;;
65009;SDS011;51556;50.002;22.014;2022-12-20T06:24:19;13.30;;;6.20;;
65009;SDS011;51556;50.002;22.014;2022-12-20T06:26:45;12.60;;;5.40;;
65009;SDS011;51556;50.002;22.014;2022-12-20T06:29:10;13.30;;;5.90;;
65009;SDS011;51556;50.002;22.014;2022-12-20T06:31:38;14.40;;;6.20;;
65009;SDS011;51556;50.002;22.014;2022-12-20T06:34:04;15.80;;;6.30;;
65009;SDS011;51556;50.002;22.014;2022-12-20T06:36:30;15.60;;;5.50;;
65009;SDS011;51556;50.002;22.014;2022-12-20T06:38:56;12.30;;;5.70;;
65009;SDS011;51556;50.002;22.014;2022-12-20T06:41:21;12.80;;;5.40;;
65009;SDS011;51556;50.002;22.014;2022-12-20T06:43:47;13.60;;;6.70;;
65009;SDS011;51556;50.002;22.014;2022-12-20T06:46:12;13.40;;;5.60;;
65009;SDS011;51556;50.002;22.014;2022-12-20T06:48:37;11.60;;;5.90;;
65009;SDS011;51556;50.002;22.014;2022-12-20T06:51:03;11.80;;;5.70;;
65009;SDS011;51556;50.002;22.014;2022-12-20T06:53:28;13.50;;;6.50;;
65009;SDS011;51556;50.002;22.014;2022-12-20T06:55:53;14.30;;;7.10;;
65009;SDS011;51556;50.002;22.014;2022-12-20T06:58:19;11.70;;;6.40;;
65009;SDS011;51556;50.002;22.014;2022-12-20T07:00:45;12.50;;;6.00;;
65009;SDS011;51556;50.002;22.014;2022-12-20T07:03:11;12.80;;;6.20;;
65009;SDS011;51556;50.002;22.014;2022-12-20T07:05:37;13.10;;;6.00;;
65009;SDS011;51556;50.002;22.014;2022-12-20T07:08:04;14.10;;;6.70;;
65009;SDS011;51556;50.002;22.014;2022-12-20T07:10:30;14.60;;;6.70;;
65009;SDS011;51556;50.002;22.014;2022-12-20T07:12:58;10.20;;;4.80;;
65009;SDS011;51556;50.002;22.014;2022-12-20T07:15:23;14.30;;;6.10;;
65009;SDS011;51556;50.002;22.014;2022-12-20T07:17:48;16.00;;;6.90;;
65009;SDS011;51556;50.002;22.014;2022-12-20T07:20:14;12.50;;;6.60;;
65009;SDS011;51556;50.002;22.014;2022-12-20T07:22:40;14.90;;;6.90;;
65009;SDS011;51556;50.002;22.014;2022-12-20T07:25:06;10.60;;;5.90;;
65009;SDS011;51556;50.002;22.014;2022-12-20T07:27:32;14.20;;;6.50;;
65009;SDS011;51556;50.002;22.014;2022-12-20T07:29:57;15.10;;;6.40;;
65009;SDS011;51556;50.002;22.014;2022-12-20T07:32:22;11.10;;;5.70;;
65009;SDS011;51556;50.002;22.014;2022-12-20T07:34:48;12.30;;;6.50;;
65009;SDS011;51556;50.002;22.014;2022-12-20T07:37:13;13.20;;;5.70;;
65009;SDS011;51556;50.002;22.014;2022-12-20T07:39:38;14.60;;;6.60;;
65009;SDS011;51556;50.002;22.014;2022-12-20T07:42:06;11.80;;;5.70;;
65009;SDS011;51556;50.002;22.014;2022-12-20T07:44:31;14.20;;;7.10;;
65009;SDS011;51556;50.002;22.014;2022-12-20T07:46:57;14.00;;;6.90;;
65009;SDS011;51556;50.002;22.014;2022-12-20T07:49:22;17.70;;;7.10;;
65009;SDS011;51556;50.002;22.014;2022-12-20T07:51:49;12.50;;;6.50;;
65009;SDS011;51556;50.002;22.014;2022-12-20T07:54:21;14.20;;;6.80;;
65009;SDS011;51556;50.002;22.014;2022-12-20T07:56:51;14.20;;;6.70;;
65009;SDS011;51556;50.002;22.014;2022-12-20T07:59:21;14.20;;;6.50;;
65009;SDS011;51556;50.002;22.014;2022-12-20T08:04:18;16.60;;;7.10;;
65009;SDS011;51556;50.002;22.014;2022-12-20T08:06:47;14.10;;;6.00;;
65009;SDS011;51556;50.002;22.014;2022-12-20T08:09:14;14.80;;;7.20;;
65009;SDS011;51556;50.002;22.014;2022-12-20T08:11:42;12.10;;;6.00;;
65009;SDS011;51556;50.002;22.014;2022-12-20T08:14:10;14.70;;;7.10;;
65009;SDS011;51556;50.002;22.014;2022-12-20T08:16:36;16.30;;;7.20;;
65009;SDS011;51556;50.002;22.014;2022-12-20T08:19:01;13.70;;;5.60;;
65009;SDS011;51556;50.002;22.014;2022-12-20T08:21:27;15.50;;;6.60;;
65009;SDS011;51556;50.002;22.014;2022-12-20T08:23:53;12.60;;;6.00;;
65009;SDS011;51556;50.002;22.014;2022-12-20T08:26:18;12.40;;;6.50;;
65009;SDS011;51556;50.002;22.014;2022-12-20T08:28:43;15.80;;;7.50;;
65009;SDS011;51556;50.002;22.014;2022-12-20T08:31:09;12.80;;;5.90;;
65009;SDS011;51556;50.002;22.014;2022-12-20T08:33:35;16.10;;;7.00;;
65009;SDS011;51556;50.002;22.014;2022-12-20T08:36:03;14.40;;;6.80;;
65009;SDS011;51556;50.002;22.014;2022-12-20T08:38:30;16.10;;;6.70;;
65009;SDS011;51556;50.002;22.014;2022-12-20T08:43:30;15.20;;;6.70;;
65009;SDS011;51556;50.002;22.014;2022-12-20T08:45:57;11.80;;;6.10;;
65009;SDS011;51556;50.002;22.014;2022-12-20T08:48:22;14.20;;;6.60;;
65009;SDS011;51556;50.002;22.014;2022-12-20T08:50:52;15.20;;;6.80;;
65009;SDS011;51556;50.002;22.014;2022-12-20T08:53:21;13.50;;;5.60;;
65009;SDS011;51556;50.002;22.014;2022-12-20T08:55:47;15.00;;;7.10;;
65009;SDS011;51556;50.002;22.014;2022-12-20T08:58:13;14.00;;;6.80;;
65009;SDS011;51556;50.002;22.014;2022-12-20T09:00:39;17.00;;;6.40;;
65009;SDS011;51556;50.002;22.014;2022-12-20T09:03:05;13.20;;;6.30;;
65009;SDS011;51556;50.002;22.014;2022-12-20T09:05:31;14.10;;;6.20;;
65009;SDS011;51556;50.002;22.014;2022-12-20T09:07:57;12.70;;;6.90;;
65009;SDS011;51556;50.002;22.014;2022-12-20T09:10:22;14.40;;;6.70;;
65009;SDS011;51556;50.002;22.014;2022-12-20T09:12:48;14.30;;;7.80;;
65009;SDS011;51556;50.002;22.014;2022-12-20T09:15:13;16.00;;;8.00;;
65009;SDS011;51556;50.002;22.014;2022-12-20T09:17:39;13.10;;;6.00;;
65009;SDS011;51556;50.002;22.014;2022-12-20T09:20:04;13.10;;;6.80;;
65009;SDS011;51556;50.002;22.014;2022-12-20T09:22:30;14.20;;;7.40;;
65009;SDS011;51556;50.002;22.014;2022-12-20T09:24:56;14.70;;;6.50;;
65009;SDS011;51556;50.002;22.014;2022-12-20T09:27:22;14.00;;;5.90;;
65009;SDS011;51556;50.002;22.014;2022-12-20T09:29:47;10.60;;;5.70;;
65009;SDS011;51556;50.002;22.014;2022-12-20T09:32:12;15.70;;;7.60;;
65009;SDS011;51556;50.002;22.014;2022-12-20T09:34:38;16.80;;;7.80;;
65009;SDS011;51556;50.002;22.014;2022-12-20T09:37:03;12.70;;;6.00;;
65009;SDS011;51556;50.002;22.014;2022-12-20T09:39:29;13.60;;;7.00;;
65009;SDS011;51556;50.002;22.014;2022-12-20T09:41:54;13.30;;;6.10;;
65009;SDS011;51556;50.002;22.014;2022-12-20T09:44:31;12.10;;;5.40;;
65009;SDS011;51556;50.002;22.014;2022-12-20T09:47:03;13.80;;;6.20;;
65009;SDS011;51556;50.002;22.014;2022-12-20T09:49:30;14.40;;;6.20;;
65009;SDS011;51556;50.002;22.014;2022-12-20T09:52:06;15.80;;;6.80;;
65009;SDS011;51556;50.002;22.014;2022-12-20T09:54:39;16.20;;;6.80;;
65009;SDS011;51556;50.002;22.014;2022-12-20T10:00:33;12.60;;;6.50;;
65009;SDS011;51556;50.002;22.014;2022-12-20T10:03:04;13.30;;;6.10;;
65009;SDS011;51556;50.002;22.014;2022-12-20T10:05:34;13.20;;;6.20;;
65009;SDS011;51556;50.002;22.014;2022-12-20T10:13:34;13.90;;;6.60;;
65009;SDS011;51556;50.002;22.014;2022-12-20T10:18:51;11.70;;;5.40;;
65009;SDS011;51556;50.002;22.014;2022-12-20T10:24:12;11.80;;;5.90;;
65009;SDS011;51556;50.002;22.014;2022-12-20T10:26:42;12.40;;;6.40;;
65009;SDS011;51556;50.002;22.014;2022-12-20T10:29:08;12.80;;;6.50;;
65009;SDS011;51556;50.002;22.014;2022-12-20T10:31:33;13.80;;;6.90;;
65009;SDS011;51556;50.002;22.014;2022-12-20T10:34:00;10.50;;;5.50;;
65009;SDS011;51556;50.002;22.014;2022-12-20T10:38:54;12.30;;;6.30;;
65009;SDS011;51556;50.002;22.014;2022-12-20T10:41:22;11.10;;;5.90;;
65009;SDS011;51556;50.002;22.014;2022-12-20T10:43:51;16.00;;;7.30;;
65009;SDS011;51556;50.002;22.014;2022-12-20T10:46:21;11.60;;;6.30;;
65009;SDS011;51556;50.002;22.014;2022-12-20T10:48:48;14.00;;;6.50;;
65009;SDS011;51556;50.002;22.014;2022-12-20T10:51:19;12.50;;;6.10;;
65009;SDS011;51556;50.002;22.014;2022-12-20T10:53:59;12.40;;;5.80;;
65009;SDS011;51556;50.002;22.014;2022-12-20T10:56:28;12.10;;;6.30;;
65009;SDS011;51556;50.002;22.014;2022-12-20T11:01:57;13.50;;;6.50;;
65009;SDS011;51556;50.002;22.014;2022-12-20T11:04:30;16.00;;;7.00;;
65009;SDS011;51556;50.002;22.014;2022-12-20T11:06:56;13.60;;;6.80;;
65009;SDS011;51556;50.002;22.014;2022-12-20T11:09:30;11.90;;;6.20;;
65009;SDS011;51556;50.002;22.014;2022-12-20T11:14:41;12.40;;;6.60;;
65009;SDS011;51556;50.002;22.014;2022-12-20T11:22:52;12.90;;;5.80;;
65009;SDS011;51556;50.002;22.014;2022-12-20T11:30:53;14.10;;;6.30;;
65009;SDS011;51556;50.002;22.014;2022-12-20T11:33:54;13.70;;;6.30;;
65009;SDS011;51556;50.002;22.014;2022-12-20T11:39:43;10.00;;;5.70;;
65009;SDS011;51556;50.002;22.014;2022-12-20T11:45:44;12.70;;;7.00;;
65009;SDS011;51556;50.002;22.014;2022-12-20T11:48:04;15.20;;;7.40;;
65009;SDS011;51556;50.002;22.014;2022-12-20T11:53:31;13.70;;;6.30;;
65009;SDS011;51556;50.002;22.014;2022-12-20T11:55:59;13.50;;;6.40;;
65009;SDS011;51556;50.002;22.014;2022-12-20T12:03:33;14.20;;;7.30;;
65009;SDS011;51556;50.002;22.014;2022-12-20T12:06:08;9.80;;;5.10;;
65009;SDS011;51556;50.002;22.014;2022-12-20T12:08:42;13.80;;;5.90;;
65009;SDS011;51556;50.002;22.014;2022-12-20T12:11:17;13.50;;;5.80;;
65009;SDS011;51556;50.002;22.014;2022-12-20T12:13:48;12.80;;;6.10;;
65009;SDS011;51556;50.002;22.014;2022-12-20T12:16:17;11.10;;;6.00;;
65009;SDS011;51556;50.002;22.014;2022-12-20T12:18:46;11.50;;;6.20;;
65009;SDS011;51556;50.002;22.014;2022-12-20T12:26:21;12.00;;;6.60;;
65009;SDS011;51556;50.002;22.014;2022-12-20T12:28:53;14.10;;;7.20;;
65009;SDS011;51556;50.002;22.014;2022-12-20T12:42:46;17.40;;;6.90;;
65009;SDS011;51556;50.002;22.014;2022-12-20T12:45:48;17.40;;;7.30;;
65009;SDS011;51556;50.002;22.014;2022-12-20T12:48:21;15.40;;;7.10;;
65009;SDS011;51556;50.002;22.014;2022-12-20T12:50:54;16.80;;;8.70;;
65009;SDS011;51556;50.002;22.014;2022-12-20T13:01:48;16.90;;;8.10;;
65009;SDS011;51556;50.002;22.014;2022-12-20T13:04:28;12.50;;;6.50;;
65009;SDS011;51556;50.002;22.014;2022-12-20T13:06:59;16.00;;;8.90;;
65009;SDS011;51556;50.002;22.014;2022-12-20T13:11:52;16.20;;;7.70;;
65009;SDS011;51556;50.002;22.014;2022-12-20T13:16:52;15.70;;;6.90;;
65009;SDS011;51556;50.002;22.014;2022-12-20T13:21:52;17.50;;;8.60;;
65009;SDS011;51556;50.002;22.014;2022-12-20T13:40:35;16.10;;;7.30;;
65009;SDS011;51556;50.002;22.014;2022-12-20T13:43:27;17.10;;;7.70;;
65009;SDS011;51556;50.002;22.014;2022-12-20T13:51:02;17.10;;;8.00;;
65009;SDS011;51556;50.002;22.014;2022-12-20T13:53:29;15.00;;;7.00;;
65009;SDS011;51556;50.002;22.014;2022-12-20T13:55:55;16.20;;;7.10;;
65009;SDS011;51556;50.002;22.014;2022-12-20T13:58:22;13.30;;;6.60;;
65009;SDS011;51556;50.002;22.014;2022-12-20T14:00:52;9.00;;;5.30;;
65009;SDS011;51556;50.002;22.014;2022-12-20T14:03:25;18.10;;;7.10;;
65009;SDS011;51556;50.002;22.014;2022-12-20T14:05:57;14.20;;;6.40;;
65009;SDS011;51556;50.002;22.014;2022-12-20T14:08:26;13.00;;;6.80;;
65009;SDS011;51556;50.002;22.014;2022-12-20T14:11:05;15.00;;;7.40;;
65009;SDS011;51556;50.002;22.014;2022-12-20T14:13:35;17.50;;;8.00;;
65009;SDS011;51556;50.002;22.014;2022-12-20T14:16:13;13.00;;;7.10;;
65009;SDS011;51556;50.002;22.014;2022-12-20T14:18:40;17.90;;;8.00;;
65009;SDS011;51556;50.002;22.014;2022-12-20T14:21:05;17.10;;;8.20;;
65009;SDS011;51556;50.002;22.014;2022-12-20T14:23:35;15.40;;;7.50;;
65009;SDS011;51556;50.002;22.014;2022-12-20T14:26:06;14.80;;;7.10;;
65009;SDS011;51556;50.002;22.014;2022-12-20T14:31:25;18.30;;;8.40;;
65009;SDS011;51556;50.002;22.014;2022-12-20T14:37:25;18.90;;;8.90;;
65009;SDS011;51556;50.002;22.014;2022-12-20T14:40:13;16.70;;;8.20;;
65009;SDS011;51556;50.002;22.014;2022-12-20T14:42:42;17.20;;;7.90;;
65009;SDS011;51556;50.002;22.014;2022-12-20T14:47:33;19.70;;;9.00;;
65009;SDS011;51556;50.002;22.014;2022-12-20T14:50:12;17.90;;;8.40;;
65009;SDS011;51556;50.002;22.014;2022-12-20T14:52:42;16.10;;;7.80;;
65009;SDS011;51556;50.002;22.014;2022-12-20T14:55:18;18.40;;;8.70;;
65009;SDS011;51556;50.002;22.014;2022-12-20T14:57:49;17.40;;;8.60;;
65009;SDS011;51556;50.002;22.014;2022-12-20T15:13:37;15.70;;;7.70;;
65009;SDS011;51556;50.002;22.014;2022-12-20T15:16:03;17.00;;;7.50;;
65009;SDS011;51556;50.002;22.014;2022-12-20T15:18:40;14.70;;;7.60;;
65009;SDS011;51556;50.002;22.014;2022-12-20T15:21:09;20.80;;;9.20;;
65009;SDS011;51556;50.002;22.014;2022-12-20T15:23:46;17.00;;;8.20;;
65009;SDS011;51556;50.002;22.014;2022-12-20T15:26:15;16.00;;;7.90;;
65009;SDS011;51556;50.002;22.014;2022-12-20T15:28:42;18.20;;;8.40;;
65009;SDS011;51556;50.002;22.014;2022-12-20T15:31:14;15.60;;;6.90;;
65009;SDS011;51556;50.002;22.014;2022-12-20T15:33:42;18.00;;;8.80;;
65009;SDS011;51556;50.002;22.014;2022-12-20T15:36:19;18.50;;;10.30;;
65009;SDS011;51556;50.002;22.014;2022-12-20T15:38:46;15.50;;;7.80;;
65009;SDS011;51556;50.002;22.014;2022-12-20T15:41:13;18.90;;;8.00;;
65009;SDS011;51556;50.002;22.014;2022-12-20T15:46:09;21.50;;;8.80;;
65009;SDS011;51556;50.002;22.014;2022-12-20T15:48:34;17.00;;;8.40;;
65009;SDS011;51556;50.002;22.014;2022-12-20T15:51:00;20.70;;;9.20;;
65009;SDS011;51556;50.002;22.014;2022-12-20T15:53:27;18.40;;;8.30;;
65009;SDS011;51556;50.002;22.014;2022-12-20T16:01:26;17.00;;;8.60;;
65009;SDS011;51556;50.002;22.014;2022-12-20T16:04:02;20.50;;;9.30;;
65009;SDS011;51556;50.002;22.014;2022-12-20T16:06:29;20.50;;;9.00;;
65009;SDS011;51556;50.002;22.014;2022-12-20T16:08:56;20.00;;;8.60;;
65009;SDS011;51556;50.002;22.014;2022-12-20T16:11:26;16.30;;;7.80;;
65009;SDS011;51556;50.002;22.014;2022-12-20T16:13:53;16.30;;;8.10;;
65009;SDS011;51556;50.002;22.014;2022-12-20T16:16:21;14.30;;;7.20;;
65009;SDS011;51556;50.002;22.014;2022-12-20T16:25:37;13.50;;;7.30;;
65009;SDS011;51556;50.002;22.014;2022-12-20T16:34:50;18.00;;;8.30;;
65009;SDS011;51556;50.002;22.014;2022-12-20T16:37:16;18.80;;;9.00;;
65009;SDS011;51556;50.002;22.014;2022-12-20T16:46:28;15.60;;;6.70;;
65009;SDS011;51556;50.002;22.014;2022-12-20T16:48:55;13.10;;;6.60;;
65009;SDS011;51556;50.002;22.014;2022-12-20T16:58:08;17.20;;;7.30;;
65009;SDS011;51556;50.002;22.014;2022-12-20T17:07:22;14.20;;;7.00;;
65009;SDS011;51556;50.002;22.014;2022-12-20T17:09:48;14.90;;;7.30;;
65009;SDS011;51556;50.002;22.014;2022-12-20T17:12:15;21.10;;;9.90;;
65009;SDS011;51556;50.002;22.014;2022-12-20T17:14:42;17.00;;;7.30;;
65009;SDS011;51556;50.002;22.014;2022-12-20T17:17:08;16.60;;;8.00;;
65009;SDS011;51556;50.002;22.014;2022-12-20T17:19:35;17.00;;;8.00;;
65009;SDS011;51556;50.002;22.014;2022-12-20T17:22:01;17.50;;;8.10;;
65009;SDS011;51556;50.002;22.014;2022-12-20T17:24:27;15.30;;;7.30;;
65009;SDS011;51556;50.002;22.014;2022-12-20T17:26:53;14.10;;;7.00;;
65009;SDS011;51556;50.002;22.014;2022-12-20T17:29:19;18.20;;;7.80;;
65009;SDS011;51556;50.002;22.014;2022-12-20T17:31:45;17.50;;;8.40;;
65009;SDS011;51556;50.002;22.014;2022-12-20T17:34:18;17.00;;;8.90;;
65009;SDS011;51556;50.002;22.014;2022-12-20T17:36:49;16.30;;;7.80;;
65009;SDS011;51556;50.002;22.014;2022-12-20T17:46:05;13.40;;;7.00;;
65009;SDS011;51556;50.002;22.014;2022-12-20T17:55:17;13.80;;;6.60;;
65009;SDS011;51556;50.002;22.014;2022-12-20T17:57:48;13.20;;;6.90;;
65009;SDS011;51556;50.002;22.014;2022-12-20T18:00:18;13.30;;;6.70;;
65009;SDS011;51556;50.002;22.014;2022-12-20T18:02:54;14.00;;;7.20;;